sim
Sign-in with your pilot id or email,
or register
Callsign
Passwort

Schedule Details

Flight Number: OEO6795
Departure: Paris Charles de Gaulle Airport (LFPG) at 08:20
Arrival: Delhi Indira Gandhi International Airport (VIDP) at 16:35

Weather Information
Getting current METAR information for LFPG 312200Z 28006KT 9999 BKN017 BKN024 14/12 Q1017 NOSIG
Getting current METAR information for VIDP 312200Z 00000KT 1200 R28/P2000 R29/P2000 FU NSC 17/11 Q1014 NOSIG

Schedule Frequency

Route Map